Time;durP1;ratioP1;P1;durP2;ratioP2;P2;SDS_P1;SDS_P2;PMS_P1;PMS_P2;Temp;Humidity;BMP_temperature;BMP_pressure;BME280_temperature;BME280_humidity;BME280_pressure;Samples;Min_cycle;Max_cycle;Signal;HPM_P1;HPM_P2
2022/03/15 00:01:23;;;;;;;7.63;3.87;;;;;;;6.11;nan;100621.03;4900729;29;20478;-74
2022/03/15 00:03:49;;;;;;;5.77;3.30;;;;;;;6.11;nan;100617.56;4898517;29;21037;-74
2022/03/15 00:06:15;;;;;;;5.43;4.33;;;;;;;6.12;nan;100627.09;4897839;29;20517;-73
2022/03/15 00:08:40;;;;;;;4.33;3.57;;;;;;;6.16;nan;100623.50;4899110;29;20502;-73
2022/03/15 00:11:07;;;;;;;3.30;3.00;;;;;;;6.21;nan;100621.59;4898336;29;20474;-73
2022/03/15 00:13:35;;;;;;;4.80;3.75;;;;;;;6.23;nan;100618.94;4883338;29;20482;-73
2022/03/15 00:16:01;;;;;;;8.18;4.60;;;;;;;6.22;nan;100615.50;4897953;29;20217;-74
2022/03/15 00:18:30;;;;;;;5.97;3.30;;;;;;;6.26;nan;100611.03;4897754;29;20206;-73
2022/03/15 00:21:01;;;;;;;3.00;2.70;;;;;;;6.26;nan;100611.03;4897824;29;20558;-74
2022/03/15 00:23:26;;;;;;;6.18;3.78;;;;;;;6.21;nan;100608.53;4899157;29;20588;-74
2022/03/15 00:25:52;;;;;;;3.50;2.90;;;;;;;6.18;nan;100608.63;4898550;29;21473;-73
2022/03/15 00:28:19;;;;;;;2.90;2.60;;;;;;;6.19;nan;100607.75;4899290;29;20252;-74
2022/03/15 00:30:46;;;;;;;8.23;3.23;;;;;;;6.16;nan;100594.81;4899597;29;21371;-74
2022/03/15 00:33:12;;;;;;;3.73;3.07;;;;;;;6.10;nan;100589.75;4900005;29;20232;-75
2022/03/15 00:35:37;;;;;;;4.57;3.60;;;;;;;6.03;nan;100591.69;4900524;29;20691;-73
2022/03/15 00:38:03;;;;;;;5.07;3.70;;;;;;;6.01;nan;100587.44;4881689;29;20215;-74
2022/03/15 00:40:28;;;;;;;5.10;3.47;;;;;;;6.02;nan;100583.91;4884680;29;20217;-74
2022/03/15 00:42:54;;;;;;;6.83;2.97;;;;;;;6.03;nan;100594.31;4899012;29;20325;-73
2022/03/15 00:45:25;;;;;;;9.43;3.80;;;;;;;6.00;nan;100602.22;4898672;29;20611;-73
2022/03/15 00:47:51;;;;;;;7.50;4.10;;;;;;;6.01;nan;100603.06;4899083;29;20624;-74
2022/03/15 00:50:17;;;;;;;4.85;3.33;;;;;;;6.01;nan;100598.69;4897030;29;20206;-73
2022/03/15 00:52:44;;;;;;;4.70;3.97;;;;;;;6.05;nan;100602.06;4897740;29;20305;-74
2022/03/15 00:55:09;;;;;;;4.50;3.53;;;;;;;6.02;nan;100591.72;4884987;29;20297;-73
2022/03/15 00:57:35;;;;;;;4.53;3.00;;;;;;;5.99;nan;100597.88;4883543;29;20212;-74
2022/03/15 01:00:01;;;;;;;3.67;3.37;;;;;;;5.98;nan;100591.81;4897188;29;20582;-74
2022/03/15 01:02:26;;;;;;;5.93;3.80;;;;;;;6.00;nan;100593.56;4898977;29;20493;-74
2022/03/15 01:04:52;;;;;;;5.73;3.50;;;;;;;5.92;nan;100585.91;4882867;29;20830;-74
2022/03/15 01:07:17;;;;;;;5.37;3.77;;;;;;;5.85;nan;100586.97;4899180;29;20305;-74
2022/03/15 01:09:43;;;;;;;5.37;3.80;;;;;;;5.77;nan;100592.41;4884974;29;20222;-74
2022/03/15 01:12:09;;;;;;;8.10;4.60;;;;;;;5.68;nan;100595.28;4882239;29;20234;-72
2022/03/15 01:14:35;;;;;;;6.45;3.75;;;;;;;5.57;nan;100592.97;4898847;29;20221;-73
2022/03/15 01:17:02;;;;;;;8.90;3.80;;;;;;;5.50;nan;100596.63;4898988;29;20202;-73
2022/03/15 01:19:28;;;;;;;5.80;4.00;;;;;;;5.46;nan;100593.25;4896428;29;20214;-73
2022/03/15 01:21:55;;;;;;;4.03;3.15;;;;;;;5.43;nan;100597.69;4895016;29;20340;-74
2022/03/15 01:24:21;;;;;;;4.95;3.17;;;;;;;5.48;nan;100587.97;4885984;29;20217;-74
2022/03/15 01:26:47;;;;;;;4.13;3.33;;;;;;;5.52;nan;100590.47;4883874;29;20233;-73
2022/03/15 01:29:13;;;;;;;4.18;3.13;;;;;;;5.55;nan;100602.56;4898728;29;20213;-74
2022/03/15 01:31:38;;;;;;;5.82;3.53;;;;;;;5.61;nan;100607.59;4882764;29;20483;-73
2022/03/15 01:34:05;;;;;;;9.63;4.15;;;;;;;5.63;nan;100604.97;4896365;29;20210;-74
2022/03/15 01:36:32;;;;;;;6.50;3.50;;;;;;;5.61;nan;100604.16;4883967;29;20202;-72
2022/03/15 01:38:58;;;;;;;7.97;4.40;;;;;;;5.60;nan;100605.91;4882710;29;20206;-73
2022/03/15 01:41:25;;;;;;;5.63;4.72;;;;;;;5.58;nan;100605.09;4897822;29;20274;-74
2022/03/15 01:43:50;;;;;;;7.23;4.20;;;;;;;5.61;nan;100611.97;4896597;29;20273;-74
2022/03/15 01:46:19;;;;;;;4.90;3.70;;;;;;;5.65;nan;100611.00;4895285;29;20233;-73
2022/03/15 01:48:45;;;;;;;5.28;3.90;;;;;;;5.69;nan;100610.00;4899188;29;20207;-74
2022/03/15 01:51:15;;;;;;;6.15;3.90;;;;;;;5.73;nan;100607.28;4897408;29;20205;-73
2022/03/15 01:53:41;;;;;;;5.57;4.75;;;;;;;5.76;nan;100601.13;4885456;29;20328;-73
2022/03/15 01:56:06;;;;;;;5.25;4.47;;;;;;;5.78;nan;100601.94;4887598;29;20217;-75
2022/03/15 01:58:32;;;;;;;3.87;3.50;;;;;;;5.81;nan;100609.69;4884176;29;20245;-73
2022/03/15 02:01:01;;;;;;;6.47;4.57;;;;;;;5.86;nan;100597.38;4881541;29;20595;-74
2022/03/15 02:03:27;;;;;;;5.65;4.70;;;;;;;5.86;nan;100607.81;4884034;29;20261;-74
2022/03/15 02:05:53;;;;;;;6.43;4.77;;;;;;;5.90;nan;100605.94;4896835;29;20388;-73
2022/03/15 02:08:18;;;;;;;4.13;3.53;;;;;;;5.92;nan;100607.63;4894863;29;20225;-74
2022/03/15 02:10:44;;;;;;;5.40;4.40;;;;;;;5.90;nan;100605.94;4899094;29;20214;-73
2022/03/15 02:13:10;;;;;;;11.52;4.35;;;;;;;5.87;nan;100609.50;4897348;29;21382;-74
2022/03/15 02:15:36;;;;;;;4.10;3.70;;;;;;;5.85;nan;100605.22;4898688;29;20325;-73
2022/03/15 02:18:03;;;;;;;7.82;4.13;;;;;;;5.83;nan;100613.06;4897974;29;20238;-73
2022/03/15 02:20:29;;;;;;;7.07;4.30;;;;;;;5.83;nan;100605.25;4899936;29;20281;-74
2022/03/15 02:22:55;;;;;;;8.30;6.05;;;;;;;5.84;nan;100608.75;4899125;29;21410;-73
2022/03/15 02:25:21;;;;;;;7.40;5.00;;;;;;;5.84;nan;100614.81;4899098;29;20221;-74
2022/03/15 02:27:46;;;;;;;7.30;4.07;;;;;;;5.86;nan;100623.44;4902002;29;20508;-74
2022/03/15 02:30:12;;;;;;;8.20;4.87;;;;;;;5.85;nan;100606.06;4901453;29;20218;-74
2022/03/15 02:32:38;;;;;;;10.50;4.83;;;;;;;5.86;nan;100609.53;4901382;29;20372;-73
2022/03/15 02:35:05;;;;;;;7.53;4.13;;;;;;;5.83;nan;100615.69;4899273;29;20365;-73
2022/03/15 02:37:31;;;;;;;8.50;3.95;;;;;;;5.77;nan;100608.03;4901240;29;20774;-74
2022/03/15 02:39:56;;;;;;;4.23;3.83;;;;;;;5.75;nan;100595.06;4900839;29;20332;-73
2022/03/15 02:42:22;;;;;;;5.57;4.17;;;;;;;5.76;nan;100598.53;4902273;29;20269;-74
2022/03/15 02:44:47;;;;;;;6.10;4.13;;;;;;;5.74;nan;100595.09;4901153;29;20216;-73
2022/03/15 02:47:13;;;;;;;5.60;3.50;;;;;;;5.74;nan;100595.94;4897829;29;20238;-73
2022/03/15 02:49:38;;;;;;;6.43;4.17;;;;;;;5.74;nan;100588.13;4900547;29;20241;-74
2022/03/15 02:52:04;;;;;;;4.10;3.07;;;;;;;5.74;nan;100595.94;4901695;29;20238;-74
2022/03/15 02:54:29;;;;;;;10.00;4.03;;;;;;;5.72;nan;100595.13;4899576;29;20250;-74
2022/03/15 02:56:55;;;;;;;4.87;3.00;;;;;;;5.72;nan;100591.66;4900350;29;20198;-74
2022/03/15 02:59:20;;;;;;;6.83;4.10;;;;;;;5.75;nan;100594.19;4900728;29;20814;-73
2022/03/15 03:01:48;;;;;;;6.73;3.43;;;;;;;5.76;nan;100601.13;4899556;29;20215;-73
2022/03/15 03:04:14;;;;;;;4.45;3.42;;;;;;;5.80;nan;100604.50;4898607;29;20314;-74
2022/03/15 03:06:44;;;;;;;6.50;4.00;;;;;;;5.81;nan;100596.66;4900168;29;20830;-73
2022/03/15 03:09:11;;;;;;;5.05;3.85;;;;;;;5.81;nan;100591.44;4900675;29;20244;-73
2022/03/15 03:11:37;;;;;;;5.28;4.30;;;;;;;5.85;nan;100605.22;4899747;29;20210;-73
2022/03/15 03:14:06;;;;;;;4.23;3.33;;;;;;;5.88;nan;100600.78;4900000;29;20214;-74
2022/03/15 03:16:32;;;;;;;5.22;3.20;;;;;;;5.90;nan;100609.41;4902061;29;20533;-72
2022/03/15 03:18:58;;;;;;;5.33;3.10;;;;;;;5.92;nan;100610.22;4900294;29;20286;-74
2022/03/15 03:21:27;;;;;;;4.47;2.80;;;;;;;5.95;nan;100607.56;4901083;29;20620;-72
2022/03/15 03:23:54;;;;;;;4.07;2.90;;;;;;;5.96;nan;100604.03;4900986;29;20211;-73
2022/03/15 03:26:21;;;;;;;5.68;4.68;;;;;;;5.95;nan;100606.72;4897906;29;20227;-73
2022/03/15 03:28:48;;;;;;;4.57;3.63;;;;;;;5.95;nan;100611.94;4899783;29;20289;-73
2022/03/15 03:31:15;;;;;;;6.05;3.80;;;;;;;5.95;nan;100607.56;4899834;29;20482;-73
2022/03/15 03:33:41;;;;;;;6.72;3.40;;;;;;;5.95;nan;100615.38;4898646;29;20474;-74
2022/03/15 03:36:09;;;;;;;6.35;3.92;;;;;;;5.94;nan;100602.38;4899785;29;20218;-73
2022/03/15 03:38:35;;;;;;;6.45;4.00;;;;;;;5.97;nan;100605.78;4900857;29;20210;-74
2022/03/15 03:41:01;;;;;;;5.13;2.78;;;;;;;6.03;nan;100606.50;4899450;29;20773;-74
2022/03/15 03:43:27;;;;;;;5.03;4.07;;;;;;;6.06;nan;100593.38;4900135;29;20225;-73
2022/03/15 03:45:52;;;;;;;4.30;2.70;;;;;;;6.04;nan;100601.22;4898598;29;20580;-74
2022/03/15 03:48:19;;;;;;;5.37;3.90;;;;;;;6.06;nan;100595.97;4898242;29;20481;-73
2022/03/15 03:50:44;;;;;;;7.22;4.45;;;;;;;6.09;nan;100595.88;4900039;29;20218;-73
2022/03/15 03:53:09;;;;;;;4.97;4.33;;;;;;;6.14;nan;100583.56;4898866;29;20257;-74
2022/03/15 03:55:36;;;;;;;4.50;3.83;;;;;;;6.19;nan;100584.28;4898887;29;20225;-73
2022/03/15 03:58:02;;;;;;;5.88;4.32;;;;;;;6.25;nan;100591.06;4899854;29;20214;-73
2022/03/15 04:00:27;;;;;;;8.95;4.18;;;;;;;6.29;nan;100585.72;4897533;29;20218;-74
2022/03/15 04:02:57;;;;;;;7.13;4.90;;;;;;;6.37;nan;100583.72;4898415;29;20561;-73
2022/03/15 04:05:24;;;;;;;10.30;4.90;;;;;;;6.41;nan;100584.47;4898361;29;20217;-74
2022/03/15 04:07:50;;;;;;;4.93;3.67;;;;;;;6.46;nan;100589.56;4900313;29;20230;-73
2022/03/15 04:10:16;;;;;;;8.07;4.70;;;;;;;6.50;nan;100585.94;4899239;29;20655;-73
2022/03/15 04:12:45;;;;;;;5.72;4.40;;;;;;;6.54;nan;100587.56;4900053;29;20282;-73
2022/03/15 04:15:11;;;;;;;6.55;5.00;;;;;;;6.59;nan;100590.91;4900014;29;20349;-73
2022/03/15 04:17:37;;;;;;;8.50;5.03;;;;;;;6.63;nan;100576.81;4899955;29;20289;-73
2022/03/15 04:20:03;;;;;;;6.87;4.93;;;;;;;6.68;nan;100584.53;4898024;29;20357;-74
2022/03/15 04:22:28;;;;;;;4.53;4.05;;;;;;;6.72;nan;100580.88;4896646;29;20226;-74
2022/03/15 04:24:55;;;;;;;9.00;4.10;;;;;;;6.76;nan;100585.97;4897278;29;20222;-74
2022/03/15 04:27:20;;;;;;;5.55;4.38;;;;;;;6.79;nan;100591.09;4899525;29;20237;-73
2022/03/15 04:29:46;;;;;;;7.30;4.83;;;;;;;6.81;nan;100589.28;4897750;29;20491;-73
2022/03/15 04:32:11;;;;;;;7.17;5.37;;;;;;;6.81;nan;100584.06;4897814;29;20226;-74
2022/03/15 04:34:37;;;;;;;12.93;5.70;;;;;;;6.84;nan;100585.72;4888095;29;20199;-74
2022/03/15 04:37:03;;;;;;;5.32;4.78;;;;;;;6.85;nan;100588.28;4893723;29;20203;-73
2022/03/15 04:39:29;;;;;;;6.90;4.37;;;;;;;6.86;nan;100590.00;4890401;29;20214;-73
2022/03/15 04:41:55;;;;;;;7.33;5.20;;;;;;;6.88;nan;100595.16;4893435;29;20320;-74
2022/03/15 04:44:20;;;;;;;7.28;5.82;;;;;;;6.90;nan;100600.34;4891853;29;20920;-74
2022/03/15 04:46:46;;;;;;;4.93;4.43;;;;;;;6.90;nan;100603.81;4894943;29;20860;-73
2022/03/15 04:49:11;;;;;;;7.60;5.20;;;;;;;6.90;nan;100597.72;4896090;29;20297;-73
2022/03/15 04:51:38;;;;;;;9.80;4.67;;;;;;;6.90;nan;100600.34;4896765;29;20636;-74
2022/03/15 04:54:04;;;;;;;7.78;4.93;;;;;;;6.89;nan;100598.66;4896974;29;20253;-74
2022/03/15 04:56:30;;;;;;;5.77;4.40;;;;;;;6.89;nan;100601.25;4898418;29;20218;-75
2022/03/15 04:58:55;;;;;;;7.93;5.90;;;;;;;6.87;nan;100594.31;4899427;29;20250;-74
2022/03/15 05:01:21;;;;;;;7.23;4.13;;;;;;;6.87;nan;100596.91;4897950;29;20198;-73
2022/03/15 05:03:46;;;;;;;10.10;4.50;;;;;;;6.87;nan;100596.06;4898506;29;20262;-74
2022/03/15 05:06:11;;;;;;;6.40;5.20;;;;;;;6.85;nan;100597.88;4898024;29;20226;-74
2022/03/15 05:08:37;;;;;;;9.77;4.53;;;;;;;6.84;nan;100602.25;4899152;29;20698;-74
2022/03/15 05:11:08;;;;;;;6.17;4.77;;;;;;;6.81;nan;100594.53;4898516;29;20222;-74
2022/03/15 05:13:40;;;;;;;5.68;4.82;;;;;;;6.81;nan;100594.53;4898546;29;20372;-74
2022/03/15 05:16:10;;;;;;;5.78;5.20;;;;;;;6.80;nan;100598.00;4898717;29;20213;-73
2022/03/15 05:18:36;;;;;;;10.27;5.15;;;;;;;6.78;nan;100602.47;4898744;29;20202;-74
2022/03/15 05:21:05;;;;;;;7.00;5.38;;;;;;;6.76;nan;100598.19;4897817;29;20218;-75
2022/03/15 05:23:31;;;;;;;5.93;4.45;;;;;;;6.71;nan;100592.25;4897555;29;20226;-74
2022/03/15 05:25:57;;;;;;;7.75;5.72;;;;;;;6.66;nan;100581.94;4898096;29;20214;-73
2022/03/15 05:28:22;;;;;;;6.73;4.63;;;;;;;6.63;nan;100588.13;4896379;29;20210;-75
2022/03/15 05:30:48;;;;;;;8.60;6.07;;;;;;;6.62;nan;100598.63;4898628;29;20228;-75
2022/03/15 05:33:13;;;;;;;6.20;5.10;;;;;;;6.61;nan;100600.34;4895508;29;20230;-75
2022/03/15 05:35:41;;;;;;;7.35;5.28;;;;;;;6.60;nan;100589.97;4896058;29;20222;-75
2022/03/15 05:38:08;;;;;;;6.50;4.90;;;;;;;6.59;nan;100588.28;4899397;29;20280;-75
2022/03/15 05:40:34;;;;;;;7.22;4.65;;;;;;;6.58;nan;100594.38;4898783;29;20206;-75
2022/03/15 05:42:59;;;;;;;7.43;4.90;;;;;;;6.58;nan;100597.84;4896246;29;20690;-75
2022/03/15 05:45:25;;;;;;;6.40;5.30;;;;;;;6.61;nan;100596.91;4898293;29;20939;-75
2022/03/15 05:47:52;;;;;;;9.90;6.18;;;;;;;6.64;nan;100597.69;4897972;29;20230;-75
2022/03/15 05:50:17;;;;;;;11.45;5.95;;;;;;;6.66;nan;100595.00;4896673;29;20214;-74
2022/03/15 05:52:42;;;;;;;5.93;5.33;;;;;;;6.65;nan;100593.31;4898160;29;20949;-74
2022/03/15 05:55:10;;;;;;;6.93;6.17;;;;;;;6.64;nan;100579.41;4898132;29;20301;-75
2022/03/15 05:57:36;;;;;;;10.32;5.00;;;;;;;6.64;nan;100570.69;4902177;29;20301;-74
2022/03/15 06:00:01;;;;;;;7.50;6.27;;;;;;;6.65;nan;100575.03;4900421;29;20213;-74
2022/03/15 06:02:27;;;;;;;12.73;9.10;;;;;;;6.69;nan;100579.22;4901760;29;20525;-74
2022/03/15 06:04:52;;;;;;;16.80;9.37;;;;;;;6.71;nan;100572.22;4899328;29;20242;-76
2022/03/15 06:07:18;;;;;;;9.07;7.10;;;;;;;6.71;nan;100560.91;4901453;29;20242;-74
2022/03/15 06:09:43;;;;;;;7.10;6.27;;;;;;;6.69;nan;100555.72;4902921;29;20210;-74
2022/03/15 06:12:09;;;;;;;9.20;6.10;;;;;;;6.68;nan;100551.44;4902467;29;20714;-75
2022/03/15 06:14:35;;;;;;;7.32;6.10;;;;;;;6.65;nan;100547.16;4899292;29;20238;-76
2022/03/15 06:17:00;;;;;;;7.83;6.10;;;;;;;6.64;nan;100547.19;4900692;29;20332;-74
2022/03/15 06:19:25;;;;;;;7.60;5.87;;;;;;;6.61;nan;100544.69;4901394;29;20241;-76
2022/03/15 06:21:51;;;;;;;8.60;6.60;;;;;;;6.60;nan;100543.84;4901878;29;20258;-74
2022/03/15 06:24:17;;;;;;;9.40;6.40;;;;;;;6.60;nan;100541.22;4900276;29;21419;-74
2022/03/15 06:26:43;;;;;;;10.82;7.32;;;;;;;6.62;nan;100533.34;4902185;29;20326;-73
2022/03/15 06:29:09;;;;;;;9.80;6.78;;;;;;;6.63;nan;100543.72;4901550;29;20792;-74
2022/03/15 06:31:37;;;;;;;8.50;6.13;;;;;;;6.65;nan;100541.09;4902004;29;20516;-74
2022/03/15 06:34:04;;;;;;;7.60;6.65;;;;;;;6.67;nan;100535.81;4900400;29;20233;-73
2022/03/15 06:36:30;;;;;;;7.65;5.65;;;;;;;6.67;nan;100534.06;4900786;29;20234;-74
2022/03/15 06:38:56;;;;;;;6.73;5.80;;;;;;;6.67;nan;100526.25;4900655;29;20296;-75
2022/03/15 06:41:21;;;;;;;7.03;6.32;;;;;;;6.71;nan;100511.31;4900212;29;20210;-74
2022/03/15 06:43:47;;;;;;;10.77;5.87;;;;;;;6.70;nan;100504.38;4900040;29;20244;-74
2022/03/15 06:46:14;;;;;;;6.70;5.90;;;;;;;6.70;nan;100513.06;4899808;29;20241;-74
2022/03/15 06:48:40;;;;;;;8.48;6.20;;;;;;;6.72;nan;100516.47;4902428;29;20531;-74
2022/03/15 06:51:06;;;;;;;9.40;5.45;;;;;;;6.77;nan;100521.53;4901459;29;20588;-73
2022/03/15 06:53:31;;;;;;;9.43;5.60;;;;;;;6.80;nan;100511.84;4899725;29;20290;-74
2022/03/15 06:55:57;;;;;;;9.20;5.90;;;;;;;6.81;nan;100500.50;4901445;29;20289;-74
2022/03/15 06:58:23;;;;;;;6.50;5.77;;;;;;;6.82;nan;100496.97;4900787;29;21320;-73
2022/03/15 07:00:48;;;;;;;7.47;4.60;;;;;;;6.81;nan;100490.06;4901044;29;20229;-74
2022/03/15 07:03:14;;;;;;;6.10;4.87;;;;;;;6.80;nan;100485.72;4901234;29;20279;-73
2022/03/15 07:05:40;;;;;;;7.32;4.72;;;;;;;6.78;nan;100479.72;4901521;29;20221;-75
2022/03/15 07:08:06;;;;;;;8.63;4.85;;;;;;;6.76;nan;100486.75;4900330;29;20708;-75
2022/03/15 07:10:32;;;;;;;7.33;5.10;;;;;;;6.76;nan;100475.47;4898842;29;20329;-73
2022/03/15 07:12:58;;;;;;;6.75;4.85;;;;;;;6.79;nan;100496.25;4899685;29;20534;-73
2022/03/15 07:15:23;;;;;;;4.47;4.07;;;;;;;6.82;nan;100486.53;4899970;29;20215;-74
2022/03/15 07:17:51;;;;;;;5.90;5.13;;;;;;;6.87;nan;100478.56;4899507;29;20210;-73
2022/03/15 07:20:16;;;;;;;7.13;6.45;;;;;;;6.89;nan;100481.97;4899918;29;20650;-74
2022/03/15 07:22:42;;;;;;;10.20;7.20;;;;;;;6.89;nan;100471.53;4900583;29;20238;-73
2022/03/15 07:25:08;;;;;;;9.83;7.23;;;;;;;6.85;nan;100462.94;4899438;29;20241;-74
2022/03/15 07:27:33;;;;;;;7.63;6.85;;;;;;;6.84;nan;100465.59;4899756;29;20234;-74
2022/03/15 07:29:59;;;;;;;9.27;7.53;;;;;;;6.84;nan;100457.78;4899639;29;20218;-74
2022/03/15 07:32:24;;;;;;;8.77;7.40;;;;;;;6.88;nan;100443.69;4900517;29;20614;-75
2022/03/15 07:34:49;;;;;;;10.00;7.77;;;;;;;6.96;nan;100438.19;4901095;29;20226;-74
2022/03/15 07:37:15;;;;;;;11.27;9.53;;;;;;;7.03;nan;100440.53;4898616;29;20364;-73
2022/03/15 07:39:40;;;;;;;10.47;8.50;;;;;;;7.07;nan;100431.72;4900794;29;20210;-74
2022/03/15 07:42:06;;;;;;;12.00;9.73;;;;;;;7.10;nan;100428.09;4900552;29;20233;-74
2022/03/15 07:44:33;;;;;;;14.50;9.32;;;;;;;7.14;nan;100429.72;4887976;29;20212;-74
2022/03/15 07:46:58;;;;;;;11.40;8.83;;;;;;;7.18;nan;100410.38;4900584;29;20234;-74
2022/03/15 07:49:24;;;;;;;11.43;8.20;;;;;;;7.22;nan;100395.47;4892481;29;20218;-74
2022/03/15 07:51:50;;;;;;;9.63;8.07;;;;;;;7.27;nan;100399.59;4893840;29;20591;-74
2022/03/15 07:54:16;;;;;;;7.73;7.03;;;;;;;7.35;nan;100396.72;4895155;29;20308;-75
2022/03/15 07:56:43;;;;;;;10.45;9.25;;;;;;;7.40;nan;100400.00;4895772;29;20454;-75
2022/03/15 07:59:09;;;;;;;10.88;8.70;;;;;;;7.45;nan;100398.06;4945253;23;20214;-75
2022/03/15 08:01:35;;;;;;;14.03;10.17;;;;;;;7.45;nan;100405.03;4913890;29;20304;-76
2022/03/15 08:04:01;;;;;;;10.38;8.02;;;;;;;7.45;nan;100405.91;4914319;29;20591;-76
2022/03/15 08:06:26;;;;;;;11.23;9.07;;;;;;;7.47;nan;100390.16;4914015;29;20253;-74
2022/03/15 08:08:57;;;;;;;11.90;9.60;;;;;;;7.46;nan;100388.47;4912437;29;20829;-74
2022/03/15 08:11:23;;;;;;;10.18;8.10;;;;;;;7.46;nan;100388.47;4911004;29;20209;-76
2022/03/15 08:13:49;;;;;;;10.88;9.30;;;;;;;7.45;nan;100387.63;4914219;29;20233;-75
2022/03/15 08:16:14;;;;;;;10.97;8.37;;;;;;;7.48;nan;100397.06;4912743;29;20205;-76
2022/03/15 08:18:40;;;;;;;9.43;8.20;;;;;;;7.52;nan;100394.28;4910483;29;20556;-76
2022/03/15 08:21:05;;;;;;;9.40;7.90;;;;;;;7.58;nan;100385.34;4915720;29;20225;-77
2022/03/15 08:23:31;;;;;;;9.97;8.83;;;;;;;7.65;nan;100378.16;4918381;29;20236;-75
2022/03/15 08:25:58;;;;;;;14.97;11.23;;;;;;;7.69;nan;100377.09;4916788;29;20248;-76
2022/03/15 08:28:24;;;;;;;14.18;10.98;;;;;;;7.75;nan;100371.66;4915401;29;20281;-76
2022/03/15 08:30:51;;;;;;;14.05;12.52;;;;;;;7.80;nan;100371.44;4915310;29;20217;-75
2022/03/15 08:33:17;;;;;;;18.77;13.25;;;;;;;7.83;nan;100366.09;4916063;29;20232;-76
2022/03/15 08:35:42;;;;;;;17.80;12.33;;;;;;;7.86;nan;100366.84;4919502;29;20623;-76
2022/03/15 08:38:08;;;;;;;13.40;8.47;;;;;;;7.89;nan;100361.47;4919131;29;20532;-75
2022/03/15 08:40:34;;;;;;;13.70;10.10;;;;;;;7.90;nan;100363.16;4916086;29;20208;-77
2022/03/15 08:43:01;;;;;;;13.23;8.40;;;;;;;7.92;nan;100363.13;4916703;29;20509;-76
2022/03/15 08:45:27;;;;;;;11.40;8.47;;;;;;;7.96;nan;100352.44;4916573;29;20225;-75
2022/03/15 08:47:52;;;;;;;10.90;9.53;;;;;;;8.01;nan;100354.03;4916152;29;20233;-76
2022/03/15 08:50:19;;;;;;;8.87;7.27;;;;;;;8.05;nan;100361.72;4915650;29;20647;-75
2022/03/15 08:52:45;;;;;;;10.45;6.93;;;;;;;8.07;nan;100343.31;4913761;29;20976;-76
2022/03/15 08:55:10;;;;;;;9.03;6.53;;;;;;;8.08;nan;100342.41;4914020;29;20235;-75
2022/03/15 08:57:37;;;;;;;9.57;6.00;;;;;;;8.10;nan;100333.59;4915799;29;20468;-76
2022/03/15 09:00:05;;;;;;;9.60;6.75;;;;;;;8.13;nan;100333.47;4913075;29;20730;-77
2022/03/15 09:02:31;;;;;;;7.10;6.40;;;;;;;8.12;nan;100344.81;4914551;29;20241;-75
2022/03/15 09:04:56;;;;;;;10.70;6.97;;;;;;;8.10;nan;100335.31;4914363;29;20268;-76
2022/03/15 09:07:22;;;;;;;7.63;5.73;;;;;;;8.09;nan;100329.25;4911359;29;20288;-77
2022/03/15 09:09:48;;;;;;;9.60;6.90;;;;;;;8.08;nan;100330.19;4912049;29;20291;-76
2022/03/15 09:12:13;;;;;;;13.27;6.60;;;;;;;8.11;nan;100330.03;4912826;29;20233;-77
2022/03/15 09:14:39;;;;;;;10.20;6.73;;;;;;;8.14;nan;100313.38;4914539;29;20496;-75
2022/03/15 09:17:06;;;;;;;8.20;6.90;;;;;;;8.15;nan;100313.28;4912800;29;20194;-76
2022/03/15 09:19:32;;;;;;;8.20;6.50;;;;;;;8.18;nan;100307.06;4914073;29;20222;-76
2022/03/15 09:21:59;;;;;;;7.95;7.25;;;;;;;8.23;nan;100306.88;4915331;29;20237;-76
2022/03/15 09:24:24;;;;;;;10.30;6.45;;;;;;;8.28;nan;100294.47;4913275;29;20300;-76
2022/03/15 09:26:50;;;;;;;7.60;5.93;;;;;;;8.34;nan;100296.78;4913539;29;20203;-75
2022/03/15 09:29:15;;;;;;;7.80;7.00;;;;;;;8.38;nan;100298.38;4918250;29;20217;-76
2022/03/15 09:31:41;;;;;;;8.60;6.70;;;;;;;8.43;nan;100296.44;4914376;29;20386;-75
2022/03/15 09:34:06;;;;;;;7.20;6.50;;;;;;;8.48;nan;100294.47;4913756;29;20304;-76
2022/03/15 09:36:32;;;;;;;7.60;6.80;;;;;;;8.54;nan;100288.13;4912727;29;20333;-77
2022/03/15 09:38:57;;;;;;;10.97;7.40;;;;;;;8.61;nan;100292.16;4912140;29;20816;-76
2022/03/15 09:41:27;;;;;;;13.30;7.90;;;;;;;8.62;nan;100273.75;4912964;29;20678;-75
2022/03/15 09:43:55;;;;;;;10.80;6.38;;;;;;;8.61;nan;100269.47;4914086;29;20234;-75
2022/03/15 09:46:22;;;;;;;11.43;6.43;;;;;;;8.62;nan;100267.69;4912315;29;20706;-76
2022/03/15 09:48:54;;;;;;;14.55;9.07;;;;;;;8.68;nan;100258.69;4911833;29;20235;-76
2022/03/15 09:51:20;;;;;;;7.57;6.38;;;;;;;8.70;nan;100259.47;4911533;29;20213;-75
2022/03/15 09:53:49;;;;;;;11.15;7.18;;;;;;;8.73;nan;100257.56;4913405;29;20213;-75
2022/03/15 09:56:19;;;;;;;6.82;6.13;;;;;;;8.77;nan;100246.00;4912592;29;20292;-75
2022/03/15 09:58:46;;;;;;;8.30;6.17;;;;;;;8.80;nan;100237.16;4912713;29;20216;-77
2022/03/15 10:01:19;;;;;;;9.32;6.20;;;;;;;8.78;nan;100236.41;4914834;29;20538;-76
2022/03/15 10:03:46;;;;;;;8.10;7.30;;;;;;;8.79;nan;100236.31;4914075;29;20318;-75
2022/03/15 10:06:13;;;;;;;8.07;7.35;;;;;;;8.79;nan;100220.59;4912987;29;20316;-75
2022/03/15 10:08:39;;;;;;;9.88;6.90;;;;;;;8.80;nan;100219.69;4912241;29;20210;-75
2022/03/15 10:11:04;;;;;;;7.03;5.90;;;;;;;8.81;nan;100231.03;4912965;29;20594;-76
2022/03/15 10:13:30;;;;;;;8.20;7.17;;;;;;;8.75;nan;100232.16;4912314;29;20260;-77
2022/03/15 10:16:00;;;;;;;8.60;7.80;;;;;;;8.74;nan;100224.34;4912081;29;20483;-76
2022/03/15 10:18:27;;;;;;;9.85;6.68;;;;;;;8.69;nan;100226.34;4912248;29;20208;-76
2022/03/15 10:20:54;;;;;;;7.50;6.80;;;;;;;8.68;nan;100227.25;4911522;29;20209;-75
2022/03/15 10:23:29;;;;;;;11.03;8.10;;;;;;;8.69;nan;100232.41;4912826;29;20649;-75
2022/03/15 10:25:56;;;;;;;7.38;6.60;;;;;;;8.70;nan;100225.44;4911617;29;20212;-77
2022/03/15 10:28:23;;;;;;;9.40;8.45;;;;;;;8.67;nan;100226.41;4913023;29;20994;-76
2022/03/15 10:30:48;;;;;;;10.60;7.50;;;;;;;8.67;nan;100213.31;4911725;29;20217;-77
2022/03/15 10:33:15;;;;;;;12.90;8.43;;;;;;;8.69;nan;100205.38;4909735;29;20296;-76
2022/03/15 10:35:43;;;;;;;7.82;7.00;;;;;;;8.71;nan;100208.78;4909867;29;20690;-76
2022/03/15 10:38:10;;;;;;;7.82;6.55;;;;;;;8.71;nan;100219.25;4912499;29;20358;-77
2022/03/15 10:40:42;;;;;;;10.35;7.05;;;;;;;8.70;nan;100222.81;4910597;29;20202;-76
2022/03/15 10:43:13;;;;;;;10.05;7.47;;;;;;;8.69;nan;100223.72;4916447;29;20717;-76
2022/03/15 10:45:55;;;;;;;9.50;7.13;;;;;;;8.69;nan;100213.25;4916470;29;20215;-75
2022/03/15 10:48:23;;;;;;;9.05;8.10;;;;;;;8.69;nan;100219.31;4894108;29;20202;-76
2022/03/15 10:51:01;;;;;;;11.93;7.72;;;;;;;8.68;nan;100217.63;4917797;29;20607;-76
2022/03/15 10:53:36;;;;;;;8.27;7.18;;;;;;;8.67;nan;100210.72;4916673;29;20228;-78
2022/03/15 10:56:22;;;;;;;7.45;6.75;;;;;;;8.68;nan;100203.69;4918489;29;20240;-77
2022/03/15 10:58:53;;;;;;;10.32;7.75;;;;;;;8.70;nan;100196.63;4920409;29;20296;-77
2022/03/15 11:01:21;;;;;;;9.57;8.57;;;;;;;8.70;nan;100199.25;4921597;29;20248;-76
2022/03/15 11:04:01;;;;;;;11.80;8.00;;;;;;;8.68;nan;100193.22;4920918;29;20242;-76
2022/03/15 11:06:30;;;;;;;9.77;8.25;;;;;;;8.64;nan;100192.50;4922736;29;20221;-75
2022/03/15 11:08:56;;;;;;;12.60;9.55;;;;;;;8.62;nan;100199.59;4925342;29;20323;-75
2022/03/15 11:11:27;;;;;;;18.70;13.50;;;;;;;8.61;nan;100197.88;4923976;29;20241;-77
2022/03/15 11:14:02;;;;;;;9.43;7.30;;;;;;;8.61;nan;100187.41;4923193;29;20488;-75
2022/03/15 11:16:30;;;;;;;11.20;8.18;;;;;;;8.59;nan;100178.78;4925071;29;20308;-75
2022/03/15 11:18:57;;;;;;;8.07;6.90;;;;;;;8.58;nan;100177.06;4928831;29;20205;-76
2022/03/15 11:21:23;;;;;;;9.00;5.75;;;;;;;8.54;nan;100171.13;4926506;29;20222;-77
2022/03/15 11:23:52;;;;;;;8.07;6.55;;;;;;;8.50;nan;100164.31;4922392;29;20588;-76
2022/03/15 11:26:21;;;;;;;8.95;6.63;;;;;;;8.49;nan;100167.03;4919826;29;20226;-75
2022/03/15 11:28:48;;;;;;;13.00;7.82;;;;;;;8.47;nan;100159.25;4918540;29;20579;-76
2022/03/15 11:31:15;;;;;;;9.05;7.57;;;;;;;8.50;nan;100160.88;4915627;29;20524;-75
2022/03/15 11:33:47;;;;;;;9.23;8.25;;;;;;;8.52;nan;100156.41;4916995;29;20224;-75
2022/03/15 11:36:13;;;;;;;10.60;9.10;;;;;;;8.51;nan;100147.72;4915688;29;20221;-75
2022/03/15 11:38:41;;;;;;;11.00;8.50;;;;;;;8.54;nan;100147.56;4915818;29;20202;-75
2022/03/15 11:41:06;;;;;;;7.65;6.95;;;;;;;8.55;nan;100146.66;4915899;29;20600;-76
2022/03/15 11:44:00;;;;;;;9.03;6.60;;;;;;;8.55;nan;100149.25;4914689;29;20233;-75
2022/03/15 11:46:43;;;;;;;15.15;10.35;;;;;;;8.55;nan;100148.41;4915991;29;20225;-76